Monarch Beach, California
Current Conditions -  °F | °C
As of 10:53 PM on Sunday 23 Nov 2014 (Local Time) from KSNA Reporting Station
Clear Clear  
Wind Chill: 60°   Ceiling: Unl
Heat Index: 60°   Visibility: 10mi
Dew Point: 24°   Wind: 3mph
Humidity: 25%   Direction: 10°N
Pressure: 30.14"   Gusts: NA
Location:  33.4774°N, 117.704°W
Report Text: KSNA 240653Z 01003KT 10SM CLR 16/M04 A3014 RMK AO2 SLP205 T01561044 $
Loading
Personal Weather Stations






























Interactive Weather Map New forecast layout! Learn more

10-Day Weather Forecast

Advertisements
Track Severe Weather on mobile